Time;durP1;ratioP1;P1;durP2;ratioP2;P2;SDS_P1;SDS_P2;PMS_P1;PMS_P2;Temp;Humidity;BMP_temperature;BMP_pressure;BME280_temperature;BME280_humidity;BME280_pressure;Samples;Min_cycle;Max_cycle;Signal;HPM_P1;HPM_P2
2022/06/27 00:00:14;;;;;;;6.47;4.30;;;17.10;99.90;;;;;;4922999;29;20047;-86
2022/06/27 00:02:39;;;;;;;9.68;5.53;;;17.10;99.90;;;;;;4939515;28;20043;-87
2022/06/27 00:05:06;;;;;;;13.00;6.15;;;17.10;99.90;;;;;;4936654;28;20104;-86
2022/06/27 00:07:32;;;;;;;7.93;4.65;;;17.10;99.90;;;;;;4933913;29;20577;-86
2022/06/27 00:09:58;;;;;;;8.50;6.00;;;17.20;99.90;;;;;;4923390;29;20075;-86
2022/06/27 00:12:24;;;;;;;10.02;5.93;;;17.10;99.90;;;;;;4938624;28;20123;-86
2022/06/27 00:14:50;;;;;;;12.98;5.53;;;17.20;99.90;;;;;;4918526;29;20047;-85
2022/06/27 00:17:16;;;;;;;7.75;4.65;;;17.10;99.90;;;;;;4920046;29;20043;-86
2022/06/27 00:19:42;;;;;;;9.68;5.15;;;17.10;99.90;;;;;;4919538;29;20094;-86
2022/06/27 00:22:08;;;;;;;10.48;6.05;;;17.10;99.90;;;;;;4922702;29;20039;-86
2022/06/27 00:24:34;;;;;;;8.45;4.88;;;17.10;99.90;;;;;;4923640;29;20047;-85
2022/06/27 00:27:00;;;;;;;7.75;5.53;;;17.10;99.90;;;;;;4932054;29;20048;-86
2022/06/27 00:29:25;;;;;;;10.85;5.95;;;17.10;99.90;;;;;;4935167;29;20150;-85
2022/06/27 00:31:51;;;;;;;9.02;6.90;;;17.10;99.90;;;;;;4922851;29;20054;-86
2022/06/27 00:34:17;;;;;;;11.07;6.35;;;17.10;99.90;;;;;;4942626;28;20052;-85
2022/06/27 00:36:44;;;;;;;12.48;6.32;;;17.10;99.90;;;;;;4922397;29;20584;-85
2022/06/27 00:39:10;;;;;;;9.65;6.35;;;17.10;99.90;;;;;;4925520;29;20052;-86
2022/06/27 00:41:36;;;;;;;8.75;6.13;;;17.10;99.90;;;;;;4945777;28;20506;-86
2022/06/27 00:44:02;;;;;;;10.32;6.22;;;17.10;99.90;;;;;;4944956;28;20082;-86
2022/06/27 00:46:29;;;;;;;10.10;6.47;;;16.90;99.90;;;;;;4918008;29;20051;-86
2022/06/27 00:48:56;;;;;;;9.13;6.53;;;17.00;99.90;;;;;;4942037;28;20524;-87
2022/06/27 00:51:24;;;;;;;12.85;7.50;;;17.00;99.90;;;;;;4937107;29;20047;-86
2022/06/27 00:53:52;;;;;;;9.55;6.85;;;17.00;99.90;;;;;;4938849;29;20060;-86
2022/06/27 00:56:18;;;;;;;10.50;6.43;;;17.00;99.90;;;;;;4903099;29;20044;-85
2022/06/27 00:58:44;;;;;;;10.88;6.97;;;17.00;99.90;;;;;;4926874;29;20047;-85
2022/06/27 01:01:10;;;;;;;13.60;7.50;;;17.00;99.90;;;;;;4924914;29;20071;-85
2022/06/27 01:03:35;;;;;;;8.60;6.38;;;17.00;99.90;;;;;;4920683;29;20047;-86
2022/06/27 01:06:03;;;;;;;11.60;7.55;;;16.90;99.90;;;;;;4921323;29;20836;-86
2022/06/27 01:08:28;;;;;;;11.75;7.00;;;16.90;99.90;;;;;;4911076;29;20075;-87
2022/06/27 01:10:54;;;;;;;12.65;7.53;;;17.00;99.90;;;;;;4919824;29;20114;-87
2022/06/27 01:13:21;;;;;;;10.45;7.03;;;17.00;99.90;;;;;;4918123;29;20109;-87
2022/06/27 01:15:47;;;;;;;12.52;6.93;;;16.90;99.90;;;;;;4920152;29;20069;-88
2022/06/27 01:18:13;;;;;;;10.00;6.95;;;16.90;99.90;;;;;;4922699;29;20472;-87
2022/06/27 01:20:43;;;;;;;10.25;6.72;;;16.90;99.90;;;;;;4918282;29;20748;-88
2022/06/27 01:23:10;;;;;;;11.57;6.75;;;16.90;99.90;;;;;;4935626;28;20044;-87
2022/06/27 01:25:36;;;;;;;10.05;7.40;;;16.90;99.90;;;;;;4924499;29;20044;-87
2022/06/27 01:28:07;;;;;;;10.18;7.15;;;16.90;99.90;;;;;;4912182;29;20054;-87
2022/06/27 01:30:33;;;;;;;12.70;7.10;;;16.90;99.90;;;;;;4948131;28;20083;-86
2022/06/27 01:32:59;;;;;;;8.70;6.78;;;16.90;99.90;;;;;;4926497;29;20086;-83
2022/06/27 01:35:24;;;;;;;9.70;7.03;;;16.80;99.90;;;;;;4929574;29;20062;-87
2022/06/27 01:37:50;;;;;;;11.30;7.68;;;16.80;99.90;;;;;;4927205;29;20040;-87
2022/06/27 01:40:16;;;;;;;11.65;7.38;;;16.80;99.90;;;;;;4943850;29;20492;-87
2022/06/27 01:42:43;;;;;;;12.30;7.38;;;16.70;99.90;;;;;;4931417;29;20481;-87
2022/06/27 01:45:09;;;;;;;12.25;7.55;;;16.90;99.90;;;;;;4924665;29;20503;-88
2022/06/27 01:47:35;;;;;;;12.18;8.38;;;16.80;99.90;;;;;;4932344;29;20051;-87
2022/06/27 01:50:01;;;;;;;12.23;7.53;;;16.80;99.90;;;;;;4934902;29;20062;-87
2022/06/27 01:52:28;;;;;;;12.27;7.15;;;16.80;99.90;;;;;;4947067;29;20039;-86
2022/06/27 01:54:58;;;;;;;11.43;8.15;;;16.80;99.90;;;;;;4950313;29;20433;-86
2022/06/27 01:57:24;;;;;;;12.45;7.68;;;16.80;99.90;;;;;;4933536;29;20039;-87
2022/06/27 01:59:51;;;;;;;10.85;7.70;;;16.80;99.90;;;;;;4934389;29;20489;-87
2022/06/27 02:02:18;;;;;;;11.10;7.70;;;16.80;99.90;;;;;;4939566;28;20050;-88
2022/06/27 02:04:46;;;;;;;12.65;8.30;;;16.80;99.90;;;;;;4932685;29;20082;-88
2022/06/27 02:07:12;;;;;;;10.35;7.68;;;16.80;99.90;;;;;;4933555;29;20043;-88
2022/06/27 02:09:38;;;;;;;10.50;8.32;;;16.70;99.90;;;;;;4944783;28;20113;-88
2022/06/27 02:12:19;;;;;;;14.15;8.15;;;16.70;99.90;;;;;;4935165;29;20039;-87
2022/06/27 02:14:49;;;;;;;;;;;16.70;99.90;;;;;;4933917;29;21506;-88
2022/06/27 02:17:20;;;;;;;13.77;8.23;;;16.70;99.90;;;;;;4953160;29;19923;-87
2022/06/27 02:19:47;;;;;;;11.77;8.77;;;16.70;99.90;;;;;;4947256;29;20043;-87
2022/06/27 02:22:16;;;;;;;11.95;8.55;;;16.70;99.90;;;;;;4936559;29;20182;-87
2022/06/27 02:24:43;;;;;;;13.85;9.65;;;16.70;99.90;;;;;;4927152;29;20075;-86
2022/06/27 02:27:10;;;;;;;13.93;10.02;;;16.70;99.90;;;;;;4933702;29;20070;-86
2022/06/27 02:29:36;;;;;;;12.95;9.73;;;16.70;99.90;;;;;;4923491;28;20543;-87
2022/06/27 02:32:02;;;;;;;14.85;9.00;;;16.70;99.90;;;;;;4911990;29;20069;-87
2022/06/27 02:34:34;;;;;;;11.98;8.73;;;16.70;99.90;;;;;;4907099;29;20048;-87
2022/06/27 02:37:02;;;;;;;12.35;9.73;;;16.70;99.90;;;;;;4942413;28;20040;-87
2022/06/27 02:39:31;;;;;;;16.23;11.18;;;16.70;99.90;;;;;;4924412;29;20600;-87
2022/06/27 02:41:59;;;;;;;13.40;10.65;;;16.70;99.90;;;;;;4938383;29;20015;-87
2022/06/27 02:44:26;;;;;;;13.80;10.48;;;16.60;99.90;;;;;;4946540;29;20028;-89
2022/06/27 02:46:52;;;;;;;15.93;10.52;;;16.60;99.90;;;;;;4951204;29;20044;-86
2022/06/27 02:49:19;;;;;;;12.52;10.15;;;16.60;99.90;;;;;;4953778;29;20043;-87
2022/06/27 02:51:52;;;;;;;16.67;10.60;;;16.60;99.90;;;;;;4955410;28;20024;-89
2022/06/27 02:54:29;;;;;;;13.15;9.55;;;16.60;99.90;;;;;;4940591;29;20032;-87
2022/06/27 02:57:02;;;;;;;12.30;8.85;;;16.60;99.90;;;;;;4918406;29;20075;-87
2022/06/27 02:59:37;;;;;;;12.73;9.35;;;16.60;99.90;;;;;;4923413;29;20147;-87
2022/06/27 03:02:08;;;;;;;12.32;9.20;;;16.60;99.90;;;;;;4923702;29;20468;-87
2022/06/27 03:04:34;;;;;;;14.23;10.45;;;16.60;99.90;;;;;;4913009;29;20465;-86
2022/06/27 03:06:59;;;;;;;14.02;10.73;;;16.60;99.90;;;;;;4917199;29;20083;-87
2022/06/27 03:09:25;;;;;;;14.23;10.02;;;16.60;99.90;;;;;;4911121;29;20052;-87
2022/06/27 03:11:51;;;;;;;12.13;9.95;;;16.60;99.90;;;;;;4920863;29;20043;-87
2022/06/27 03:14:17;;;;;;;15.60;10.70;;;16.60;99.90;;;;;;4904464;29;20044;-87
2022/06/27 03:16:43;;;;;;;13.40;9.82;;;16.60;99.90;;;;;;4909520;29;20036;-87
2022/06/27 03:19:09;;;;;;;11.85;9.80;;;16.60;99.90;;;;;;4942230;29;20056;-87
2022/06/27 03:21:34;;;;;;;14.05;9.65;;;16.60;99.90;;;;;;4922807;28;20028;-87
2022/06/27 03:24:00;;;;;;;13.45;10.80;;;16.70;99.90;;;;;;4918254;29;20135;-87
2022/06/27 03:26:27;;;;;;;14.57;10.85;;;16.60;99.90;;;;;;4909014;29;20048;-87
2022/06/27 03:28:52;;;;;;;13.60;10.65;;;16.60;99.90;;;;;;4933409;29;20055;-87
2022/06/27 03:31:18;;;;;;;15.43;11.27;;;16.60;99.90;;;;;;4908416;29;20996;-88
2022/06/27 03:33:44;;;;;;;18.10;11.88;;;16.60;99.90;;;;;;4909637;29;20048;-87
2022/06/27 03:36:10;;;;;;;17.05;11.15;;;16.60;99.90;;;;;;4919333;29;20074;-87
2022/06/27 03:38:35;;;;;;;14.93;11.55;;;16.50;99.90;;;;;;4922693;29;20043;-87
2022/06/27 03:41:02;;;;;;;13.63;11.30;;;16.60;99.90;;;;;;4922379;29;20055;-86
2022/06/27 03:43:28;;;;;;;14.25;12.25;;;16.50;99.90;;;;;;4928974;29;20134;-86
2022/06/27 03:45:55;;;;;;;14.77;12.13;;;16.50;99.90;;;;;;4923358;29;20395;-87
2022/06/27 03:51:05;;;;;;;16.88;12.73;;;16.50;99.90;;;;;;4926715;29;20048;-87
2022/06/27 03:53:31;;;;;;;16.85;10.93;;;16.50;99.90;;;;;;4913375;29;20040;-87
2022/06/27 03:55:57;;;;;;;16.02;12.65;;;16.40;99.90;;;;;;4925967;29;20063;-87
2022/06/27 03:58:22;;;;;;;13.80;11.60;;;16.50;99.90;;;;;;4910595;29;20524;-87
2022/06/27 04:00:48;;;;;;;15.25;11.15;;;16.50;99.90;;;;;;4926761;29;20055;-87
2022/06/27 04:03:14;;;;;;;17.80;12.27;;;16.50;99.90;;;;;;4946765;29;20602;-87
2022/06/27 04:05:40;;;;;;;13.77;11.02;;;16.50;99.90;;;;;;4911488;29;20040;-87
2022/06/27 04:08:05;;;;;;;16.80;11.90;;;16.50;99.90;;;;;;4930536;29;20485;-87
2022/06/27 04:10:31;;;;;;;14.75;11.80;;;16.50;99.90;;;;;;4927169;29;20445;-87
2022/06/27 04:12:57;;;;;;;15.10;11.05;;;16.60;99.90;;;;;;4930421;29;20046;-87
2022/06/27 04:15:23;;;;;;;14.75;11.60;;;16.60;99.90;;;;;;4941842;28;20074;-88
2022/06/27 04:17:48;;;;;;;17.05;11.65;;;16.60;99.90;;;;;;4942396;29;20044;-87
2022/06/27 04:20:14;;;;;;;14.85;11.25;;;16.60;99.90;;;;;;4923489;29;20127;-87
2022/06/27 04:22:40;;;;;;;18.00;12.88;;;16.60;99.90;;;;;;4911949;29;20043;-87
2022/06/27 04:25:06;;;;;;;16.45;12.98;;;16.70;99.90;;;;;;4925958;29;20465;-87
2022/06/27 04:27:32;;;;;;;17.73;12.25;;;16.70;99.90;;;;;;4908588;29;20131;-87
2022/06/27 04:29:58;;;;;;;18.58;14.25;;;16.70;99.90;;;;;;4941656;29;20129;-86
2022/06/27 04:32:25;;;;;;;17.20;13.23;;;16.80;99.90;;;;;;4943019;29;20040;-86
2022/06/27 04:34:51;;;;;;;14.95;12.02;;;16.90;99.90;;;;;;4940595;28;20046;-88
2022/06/27 04:37:18;;;;;;;16.90;13.02;;;16.90;99.90;;;;;;4968149;28;20038;-90
2022/06/27 04:39:44;;;;;;;16.52;13.52;;;17.00;99.90;;;;;;4947213;28;20260;-86
2022/06/27 04:42:10;;;;;;;18.33;13.90;;;16.90;99.90;;;;;;4966136;29;20116;-85
2022/06/27 04:44:38;;;;;;;15.30;12.65;;;16.90;99.90;;;;;;4952170;29;20043;-85
2022/06/27 04:47:07;;;;;;;17.63;13.75;;;16.90;99.90;;;;;;4936815;29;20079;-87
2022/06/27 04:49:36;;;;;;;18.92;13.68;;;17.00;99.90;;;;;;4941504;29;20413;-87
2022/06/27 04:52:03;;;;;;;15.77;13.07;;;17.00;99.90;;;;;;4945723;28;20039;-87
2022/06/27 04:54:29;;;;;;;15.40;13.35;;;17.00;99.90;;;;;;4940229;28;20047;-89
2022/06/27 04:56:55;;;;;;;16.30;13.10;;;17.00;99.90;;;;;;4943525;29;20040;-87
2022/06/27 04:59:21;;;;;;;16.98;14.35;;;17.00;99.90;;;;;;4931111;28;20055;-87
2022/06/27 05:01:50;;;;;;;16.63;13.90;;;17.00;99.90;;;;;;4928459;29;20047;-87
2022/06/27 05:04:17;;;;;;;17.67;13.73;;;17.00;99.90;;;;;;4932299;29;20110;-88
2022/06/27 05:06:45;;;;;;;18.38;13.48;;;17.00;99.90;;;;;;4942366;28;20043;-87
2022/06/27 05:09:14;;;;;;;16.02;12.80;;;17.00;99.90;;;;;;4944856;28;20130;-89
2022/06/27 05:11:41;;;;;;;18.35;12.90;;;17.00;99.90;;;;;;4937074;29;20046;-87
2022/06/27 05:14:07;;;;;;;16.92;12.27;;;17.10;99.90;;;;;;4930820;29;20047;-87
2022/06/27 05:16:33;;;;;;;14.60;12.63;;;17.10;99.90;;;;;;4915800;29;20039;-88
2022/06/27 05:18:59;;;;;;;16.52;12.88;;;17.10;99.90;;;;;;4927428;28;21023;-88
2022/06/27 05:21:25;;;;;;;18.05;13.00;;;17.20;99.90;;;;;;4941312;28;20039;-88
2022/06/27 05:23:52;;;;;;;15.60;11.90;;;17.20;99.90;;;;;;4929965;29;20051;-88
2022/06/27 05:26:18;;;;;;;14.32;11.15;;;17.10;99.90;;;;;;4942884;29;20043;-88
2022/06/27 05:28:45;;;;;;;15.43;10.82;;;17.20;99.90;;;;;;4943617;29;20069;-87
2022/06/27 05:31:11;;;;;;;14.05;10.32;;;17.10;99.90;;;;;;4946698;28;20048;-87
2022/06/27 05:33:37;;;;;;;14.18;9.90;;;17.10;99.90;;;;;;4916250;28;20126;-87
2022/06/27 05:36:04;;;;;;;11.57;9.88;;;17.20;99.90;;;;;;4917530;29;20054;-89
2022/06/27 05:38:31;;;;;;;13.75;8.90;;;17.20;99.90;;;;;;4918962;29;20059;-88
2022/06/27 05:40:57;;;;;;;9.80;8.15;;;17.30;99.90;;;;;;4946974;28;20150;-88
2022/06/27 05:43:24;;;;;;;11.02;8.05;;;17.30;99.90;;;;;;4929511;29;20468;-88
2022/06/27 05:45:50;;;;;;;12.63;7.70;;;17.30;99.90;;;;;;4916581;29;20074;-88
2022/06/27 05:48:17;;;;;;;8.90;6.80;;;17.30;99.90;;;;;;4931367;29;20058;-87
2022/06/27 05:50:42;;;;;;;11.55;8.07;;;17.30;99.90;;;;;;4930385;29;20052;-87
2022/06/27 05:53:08;;;;;;;10.82;7.80;;;17.30;99.90;;;;;;4943715;28;20047;-86
2022/06/27 05:55:34;;;;;;;10.25;6.50;;;17.50;99.90;;;;;;4926831;29;20105;-86
2022/06/27 05:58:02;;;;;;;9.73;6.05;;;17.50;99.90;;;;;;4943483;28;20044;-85
2022/06/27 06:00:29;;;;;;;8.43;6.03;;;17.60;99.90;;;;;;4929795;29;20370;-87
2022/06/27 06:02:56;;;;;;;7.45;5.40;;;17.70;99.90;;;;;;4943076;28;20539;-88
2022/06/27 06:05:22;;;;;;;7.75;5.70;;;17.70;99.90;;;;;;4942411;28;20051;-87
2022/06/27 06:07:48;;;;;;;7.90;4.68;;;17.70;99.90;;;;;;4943413;28;20872;-86
2022/06/27 06:10:14;;;;;;;7.05;4.72;;;17.80;99.90;;;;;;4925916;29;20040;-86
2022/06/27 06:12:41;;;;;;;7.72;5.45;;;17.80;99.90;;;;;;4926983;28;20692;-86
2022/06/27 06:15:08;;;;;;;7.28;4.40;;;17.80;99.90;;;;;;4925007;29;21534;-87
2022/06/27 06:17:36;;;;;;;7.55;4.10;;;17.80;99.90;;;;;;4928541;29;20523;-85
2022/06/27 06:20:05;;;;;;;6.50;4.30;;;17.80;99.90;;;;;;4943110;28;20957;-85
2022/06/27 06:22:31;;;;;;;7.38;3.83;;;17.80;99.90;;;;;;4912071;29;20134;-86
2022/06/27 06:24:56;;;;;;;8.80;3.78;;;17.80;99.90;;;;;;4944445;29;20476;-87
2022/06/27 06:27:22;;;;;;;6.10;4.07;;;17.80;99.90;;;;;;4946142;29;20044;-86
2022/06/27 06:29:49;;;;;;;7.10;3.55;;;17.70;99.90;;;;;;4925814;29;20477;-86
2022/06/27 06:32:15;;;;;;;6.72;3.67;;;17.50;99.90;;;;;;4943625;28;20055;-86
2022/06/27 06:34:42;;;;;;;5.80;3.10;;;17.60;99.90;;;;;;4926698;29;20039;-86
2022/06/27 06:37:09;;;;;;;7.50;4.53;;;17.60;99.90;;;;;;4944955;29;20082;-86
2022/06/27 06:39:35;;;;;;;6.38;3.35;;;17.60;99.90;;;;;;4946584;28;20055;-86
2022/06/27 06:42:02;;;;;;;5.57;3.20;;;17.60;99.90;;;;;;4928189;29;21285;-85
2022/06/27 06:44:28;;;;;;;6.72;3.65;;;17.60;99.90;;;;;;4944565;28;20039;-85
2022/06/27 06:46:55;;;;;;;5.35;3.00;;;17.60;99.90;;;;;;4952292;29;20051;-86
2022/06/27 06:49:22;;;;;;;7.38;2.97;;;17.60;99.90;;;;;;4928900;29;20504;-85
2022/06/27 06:51:48;;;;;;;6.28;2.72;;;17.60;99.90;;;;;;4944567;28;20050;-86
2022/06/27 06:54:17;;;;;;;5.00;2.80;;;17.60;99.90;;;;;;4930685;29;20050;-86
2022/06/27 06:56:46;;;;;;;5.43;2.75;;;17.60;99.90;;;;;;4929979;29;20044;-86
2022/06/27 06:59:12;;;;;;;7.20;2.80;;;17.60;99.90;;;;;;4930661;29;20054;-85
2022/06/27 07:01:39;;;;;;;6.43;2.58;;;17.60;99.90;;;;;;4918855;29;20035;-85
2022/06/27 07:04:05;;;;;;;4.97;2.70;;;17.60;99.90;;;;;;4945979;29;20078;-85
2022/06/27 07:06:32;;;;;;;7.00;2.40;;;17.60;99.90;;;;;;4929123;29;20047;-86
2022/06/27 07:09:00;;;;;;;5.50;2.55;;;17.70;99.90;;;;;;4929635;29;20051;-86
2022/06/27 07:11:28;;;;;;;5.35;2.20;;;17.70;99.90;;;;;;4923766;29;20074;-86
2022/06/27 07:13:55;;;;;;;4.47;1.90;;;17.70;99.90;;;;;;4944736;28;20043;-87
2022/06/27 07:16:21;;;;;;;4.55;2.20;;;17.80;99.90;;;;;;4944654;29;20054;-87
2022/06/27 07:18:48;;;;;;;5.05;2.40;;;17.90;99.90;;;;;;4927496;29;20043;-86
2022/06/27 07:21:18;;;;;;;6.22;2.50;;;18.00;99.90;;;;;;4923769;29;20069;-86
2022/06/27 07:23:46;;;;;;;5.43;3.00;;;18.00;99.90;;;;;;4940865;28;20503;-88
2022/06/27 07:26:13;;;;;;;6.28;3.03;;;18.10;99.90;;;;;;4925600;29;20086;-88
2022/06/27 07:28:40;;;;;;;7.03;3.10;;;18.20;99.90;;;;;;4942032;28;20516;-87
2022/06/27 07:31:12;;;;;;;5.57;3.10;;;18.30;99.90;;;;;;4926647;29;20082;-87
2022/06/27 07:33:42;;;;;;;5.05;2.97;;;18.40;99.90;;;;;;4945051;28;20448;-88
2022/06/27 07:36:11;;;;;;;7.25;2.90;;;18.40;99.90;;;;;;4927293;29;20564;-87
2022/06/27 07:38:38;;;;;;;6.63;2.50;;;18.40;99.90;;;;;;4945397;28;20047;-88
2022/06/27 07:41:05;;;;;;;4.88;2.40;;;18.40;99.90;;;;;;4914255;29;20066;-82
2022/06/27 07:43:33;;;;;;;6.82;2.40;;;18.40;99.90;;;;;;4943840;28;20099;-82
2022/06/27 07:46:01;;;;;;;7.10;2.60;;;18.40;99.90;;;;;;4925867;28;20047;-82
2022/06/27 07:48:28;;;;;;;5.68;2.40;;;18.30;99.90;;;;;;4945465;28;20046;-81
2022/06/27 07:50:55;;;;;;;5.60;2.28;;;18.20;99.90;;;;;;4943300;28;20078;-81
2022/06/27 07:53:22;;;;;;;5.07;2.10;;;18.20;99.90;;;;;;4937434;28;20044;-81
2022/06/27 07:55:57;;;;;;;4.85;1.90;;;18.10;99.90;;;;;;4928690;29;20103;-82
2022/06/27 07:58:30;;;;;;;4.05;2.05;;;18.00;99.90;;;;;;4942719;28;20047;-81
2022/06/27 08:00:58;;;;;;;6.25;1.92;;;17.90;99.90;;;;;;4925871;29;20089;-81
2022/06/27 08:03:36;;;;;;;4.60;2.22;;;17.90;99.90;;;;;;4926257;29;20067;-82
2022/06/27 08:06:09;;;;;;;4.03;2.10;;;18.00;99.90;;;;;;4927374;29;20079;-82
2022/06/27 08:08:36;;;;;;;5.03;2.38;;;18.00;99.90;;;;;;4908456;29;20671;-82
2022/06/27 08:11:04;;;;;;;5.07;2.45;;;18.10;99.90;;;;;;4927903;29;20053;-81
2022/06/27 08:13:31;;;;;;;5.65;2.10;;;18.10;99.90;;;;;;4925842;28;20122;-81
2022/06/27 08:15:59;;;;;;;5.55;2.30;;;18.10;99.90;;;;;;4927894;29;20129;-82
2022/06/27 08:18:25;;;;;;;5.57;2.30;;;18.20;99.90;;;;;;4927736;29;20131;-81
2022/06/27 08:20:51;;;;;;;5.05;2.20;;;18.30;99.90;;;;;;4928047;29;20437;-81
2022/06/27 08:23:18;;;;;;;3.97;2.17;;;18.40;99.90;;;;;;4942796;28;20114;-82
2022/06/27 08:25:46;;;;;;;4.63;2.08;;;18.40;99.90;;;;;;4926178;29;20174;-82
2022/06/27 08:28:13;;;;;;;4.65;2.03;;;18.50;99.90;;;;;;4942116;28;20138;-81
2022/06/27 08:30:41;;;;;;;4.05;2.40;;;18.40;99.90;;;;;;4930281;28;20039;-82
2022/06/27 08:33:07;;;;;;;6.03;2.10;;;18.50;99.90;;;;;;4935849;29;20102;-81
2022/06/27 08:35:33;;;;;;;5.00;2.70;;;18.60;99.90;;;;;;4952638;29;20043;-81
2022/06/27 08:38:00;;;;;;;4.50;2.22;;;18.60;99.90;;;;;;4943442;28;20057;-82
2022/06/27 08:40:28;;;;;;;5.68;2.42;;;18.60;99.90;;;;;;4943891;28;20047;-81
2022/06/27 08:42:56;;;;;;;5.05;2.40;;;18.70;99.90;;;;;;4932747;29;20062;-81
2022/06/27 08:45:25;;;;;;;5.15;2.15;;;18.70;99.90;;;;;;4955569;28;20564;-80
2022/06/27 08:47:56;;;;;;;3.95;1.88;;;18.70;99.90;;;;;;4931533;29;20355;-80
2022/06/27 08:50:22;;;;;;;4.20;2.15;;;18.70;99.90;;;;;;4934656;29;20053;-81
2022/06/27 08:52:50;;;;;;;6.43;2.28;;;18.70;99.90;;;;;;4944842;29;20059;-81
2022/06/27 08:55:16;;;;;;;4.75;1.77;;;18.60;99.90;;;;;;4962688;28;20039;-81
2022/06/27 08:57:42;;;;;;;4.20;1.70;;;18.70;99.90;;;;;;4945657;29;20390;-81
2022/06/27 09:00:11;;;;;;;4.18;1.65;;;18.70;99.90;;;;;;4954054;29;20038;-81
2022/06/27 09:02:44;;;;;;;3.53;1.70;;;18.80;99.90;;;;;;4936878;29;20051;-82
2022/06/27 09:05:21;;;;;;;3.40;1.77;;;18.90;99.90;;;;;;4952363;28;20047;-80
2022/06/27 09:07:55;;;;;;;4.82;2.45;;;19.10;99.90;;;;;;4935430;29;20090;-80
2022/06/27 09:10:30;;;;;;;2.72;1.58;;;19.20;99.90;;;;;;4933632;29;20040;-80
2022/06/27 09:13:06;;;;;;;4.85;1.73;;;19.50;99.90;;;;;;4927422;29;20039;-80
2022/06/27 09:15:50;;;;;;;3.58;1.50;;;19.80;99.90;;;;;;4916133;29;20409;-80
2022/06/27 09:18:25;;;;;;;4.72;1.50;;;20.00;99.90;;;;;;4931709;29;20044;-80
2022/06/27 09:21:03;;;;;;;4.45;1.92;;;20.10;99.90;;;;;;4931131;29;21003;-79
2022/06/27 09:23:35;;;;;;;5.38;1.88;;;20.10;99.90;;;;;;4924659;29;20066;-80
2022/06/27 09:26:34;;;;;;;3.70;1.70;;;20.10;99.90;;;;;;4944265;28;20412;-80
2022/06/27 09:29:08;;;;;;;5.75;1.83;;;20.10;99.90;;;;;;4918388;29;20556;-81
2022/06/27 09:31:50;;;;;;;4.10;1.67;;;20.10;99.90;;;;;;4945547;29;20425;-80
2022/06/27 09:34:19;;;;;;;5.20;1.63;;;20.00;99.90;;;;;;4944861;28;20062;-80
2022/06/27 09:36:49;;;;;;;3.13;1.42;;;19.90;99.90;;;;;;4942660;28;20050;-80
2022/06/27 09:39:28;;;;;;;5.85;1.77;;;19.90;99.90;;;;;;4934215;29;20416;-80
2022/06/27 09:42:01;;;;;;;3.03;1.60;;;19.80;99.90;;;;;;4942629;28;20181;-79
2022/06/27 09:44:47;;;;;;;2.95;1.50;;;19.80;99.90;;;;;;4938070;29;20421;-80
2022/06/27 09:47:20;;;;;;;4.35;1.75;;;19.70;99.90;;;;;;4926291;29;20146;-80
2022/06/27 09:49:50;;;;;;;5.13;1.98;;;19.70;99.90;;;;;;4940222;29;20054;-79
2022/06/27 09:52:21;;;;;;;4.32;1.85;;;19.60;99.90;;;;;;4947167;28;20142;-79
2022/06/27 09:54:48;;;;;;;3.55;1.60;;;19.60;99.90;;;;;;4926498;29;20056;-80
2022/06/27 09:57:16;;;;;;;5.22;2.00;;;19.60;99.90;;;;;;4946155;28;20055;-79
2022/06/27 09:59:44;;;;;;;4.28;1.88;;;19.60;99.90;;;;;;4941372;28;20513;-79
2022/06/27 10:02:11;;;;;;;6.13;2.30;;;19.50;99.90;;;;;;4931547;29;20139;-79
2022/06/27 10:04:37;;;;;;;4.57;1.90;;;19.50;99.90;;;;;;4947876;28;20039;-79
2022/06/27 10:07:07;;;;;;;3.78;1.85;;;19.50;99.90;;;;;;4946329;28;20178;-78
2022/06/27 10:09:35;;;;;;;7.35;2.05;;;19.40;99.90;;;;;;4946489;29;20047;-78
2022/06/27 10:12:31;;;;;;;4.03;2.17;;;19.40;99.90;;;;;;4946134;29;20050;-78
2022/06/27 10:15:14;;;;;;;5.45;2.70;;;19.40;99.90;;;;;;4926807;29;20138;-78
2022/06/27 10:17:46;;;;;;;4.95;2.28;;;19.40;99.90;;;;;;4927437;29;20048;-78
2022/06/27 10:20:19;;;;;;;5.53;2.70;;;19.40;99.90;;;;;;4927164;28;20117;-79
2022/06/27 10:23:07;;;;;;;6.00;3.13;;;19.40;99.90;;;;;;4940036;29;20086;-78
2022/06/27 10:25:33;;;;;;;7.60;3.72;;;19.50;99.90;;;;;;4925216;28;20110;-79
2022/06/27 10:28:12;;;;;;;8.32;3.55;;;19.60;99.90;;;;;;4926376;29;20067;-79
2022/06/27 10:30:42;;;;;;;5.75;3.65;;;19.60;99.90;;;;;;4942176;28;20413;-79
2022/06/27 10:33:24;;;;;;;9.40;3.55;;;19.70;99.90;;;;;;4925359;29;20576;-79
2022/06/27 10:35:57;;;;;;;6.50;3.97;;;19.70;99.90;;;;;;4927356;29;20483;-79
2022/06/27 10:38:35;;;;;;;12.60;4.15;;;19.80;99.90;;;;;;4941994;28;20084;-79
2022/06/27 10:41:02;;;;;;;6.28;3.60;;;19.80;99.90;;;;;;4931308;29;20221;-79
2022/06/27 10:43:48;;;;;;;6.38;3.50;;;19.80;99.90;;;;;;4926920;29;20416;-79
2022/06/27 10:46:17;;;;;;;10.45;3.80;;;19.90;99.90;;;;;;4942817;29;20497;-79
2022/06/27 10:48:47;;;;;;;8.07;3.80;;;19.90;99.90;;;;;;4913227;29;20512;-80
2022/06/27 10:51:22;;;;;;;7.10;4.20;;;19.90;99.90;;;;;;4946825;29;20054;-79
2022/06/27 10:53:49;;;;;;;7.90;3.72;;;19.90;99.90;;;;;;4939746;29;20055;-80
2022/06/27 10:56:34;;;;;;;8.63;4.22;;;19.90;99.90;;;;;;4945520;28;20059;-80
2022/06/27 10:59:05;;;;;;;8.00;4.60;;;19.90;99.90;;;;;;4939238;29;20420;-79
2022/06/27 11:01:32;;;;;;;7.25;4.28;;;19.90;99.90;;;;;;4926792;28;20042;-80
2022/06/27 11:03:58;;;;;;;8.60;5.25;;;20.00;99.90;;;;;;4942986;29;20039;-80
2022/06/27 11:06:25;;;;;;;6.63;4.85;;;20.10;99.90;;;;;;4927892;28;20046;-79
2022/06/27 11:08:55;;;;;;;8.50;4.53;;;20.10;99.90;;;;;;4928634;29;20047;-79
2022/06/27 11:11:26;;;;;;;8.18;4.78;;;20.20;99.90;;;;;;4941907;29;20035;-80
2022/06/27 11:13:53;;;;;;;8.70;5.15;;;20.30;99.90;;;;;;4927842;29;20050;-80
2022/06/27 11:16:23;;;;;;;8.20;5.10;;;20.40;99.90;;;;;;4921835;29;20547;-80
2022/06/27 11:18:53;;;;;;;8.50;5.15;;;20.40;99.90;;;;;;4940528;29;20046;-79
2022/06/27 11:21:23;;;;;;;11.25;5.07;;;20.40;99.90;;;;;;4939163;29;20062;-80
2022/06/27 11:23:56;;;;;;;8.68;5.10;;;20.30;99.90;;;;;;4920880;29;20054;-80
2022/06/27 11:26:25;;;;;;;8.73;5.00;;;20.30;99.90;;;;;;4927977;29;20459;-80
2022/06/27 11:34:21;;;;;;;8.65;4.78;;;20.50;99.90;;;;;;4923726;29;20075;-80
2022/06/27 11:36:47;;;;;;;7.88;4.85;;;20.50;99.90;;;;;;4905421;29;20040;-78
2022/06/27 11:39:15;;;;;;;8.43;4.90;;;20.50;99.90;;;;;;4921070;29;20063;-79
2022/06/27 11:41:41;;;;;;;8.02;4.60;;;20.50;99.90;;;;;;4925330;29;20043;-82
2022/06/27 11:44:09;;;;;;;9.70;5.28;;;20.50;99.90;;;;;;4942266;29;20104;-79
2022/06/27 11:46:45;;;;;;;8.50;5.50;;;20.50;99.90;;;;;;4933876;29;20048;-79
2022/06/27 11:49:13;;;;;;;8.23;5.50;;;20.50;99.90;;;;;;4934276;29;20536;-80
2022/06/27 11:51:42;;;;;;;8.88;5.80;;;20.50;99.90;;;;;;4923413;29;20044;-79
2022/06/27 11:54:19;;;;;;;9.63;5.55;;;20.50;99.90;;;;;;4918045;29;20085;-78
2022/06/27 11:56:47;;;;;;;9.50;5.15;;;20.50;99.90;;;;;;4932335;28;20058;-78
2022/06/27 11:59:15;;;;;;;10.18;6.35;;;20.50;99.90;;;;;;4919216;29;20162;-77
2022/06/27 12:01:50;;;;;;;10.25;6.88;;;20.60;99.90;;;;;;4915943;29;20696;-78
2022/06/27 12:04:19;;;;;;;9.70;5.43;;;20.60;99.90;;;;;;4933127;29;20126;-79
2022/06/27 12:06:47;;;;;;;8.65;6.22;;;20.60;99.90;;;;;;4921604;29;20058;-78
2022/06/27 12:09:13;;;;;;;10.82;5.93;;;20.60;99.90;;;;;;4921580;29;20051;-80
2022/06/27 12:11:52;;;;;;;10.13;6.50;;;20.60;99.90;;;;;;4921541;29;20414;-79
2022/06/27 12:14:19;;;;;;;10.02;6.78;;;20.50;99.90;;;;;;4932240;29;20308;-79
2022/06/27 12:16:53;;;;;;;9.23;6.07;;;20.50;99.90;;;;;;4912796;29;20110;-79
2022/06/27 12:19:19;;;;;;;8.80;6.22;;;20.50;99.90;;;;;;4923020;29;20047;-79
2022/06/27 12:21:46;;;;;;;9.07;6.45;;;20.50;99.90;;;;;;4922565;29;20075;-80
2022/06/27 12:24:12;;;;;;;7.97;5.72;;;20.60;99.90;;;;;;4922032;29;20122;-79
2022/06/27 12:26:38;;;;;;;8.40;5.60;;;20.60;99.90;;;;;;4924299;29;20048;-78
2022/06/27 12:29:05;;;;;;;11.35;6.07;;;20.60;99.90;;;;;;4939536;29;20135;-79
2022/06/27 12:31:36;;;;;;;8.30;6.13;;;20.70;99.90;;;;;;4939979;29;20043;-79
2022/06/27 12:34:03;;;;;;;8.00;6.05;;;20.60;99.90;;;;;;4924712;29;20044;-80
2022/06/27 12:36:31;;;;;;;7.70;5.15;;;20.70;99.90;;;;;;4936616;29;20445;-80
2022/06/27 12:38:58;;;;;;;8.25;5.55;;;20.70;99.90;;;;;;4921617;29;20473;-80
2022/06/27 12:41:24;;;;;;;8.68;5.47;;;20.70;99.90;;;;;;4925031;29;20051;-79
2022/06/27 12:43:50;;;;;;;6.95;4.95;;;20.70;99.90;;;;;;4922567;29;20094;-78
2022/06/27 12:46:17;;;;;;;7.35;4.70;;;20.80;99.90;;;;;;4925885;29;20409;-79
2022/06/27 12:48:44;;;;;;;11.57;4.88;;;20.80;99.90;;;;;;4949041;29;20398;-78
2022/06/27 12:51:10;;;;;;;13.27;6.03;;;20.90;99.90;;;;;;4923352;29;20040;-78
2022/06/27 12:53:36;;;;;;;7.40;5.43;;;20.80;99.90;;;;;;4924000;29;20493;-79